sensor_id;sensor_type;location;lat;lon;timestamp;P1;durP1;ratioP1;P2;durP2;ratioP2
66972;SDS011;53902;51.466;-2.586;2023-02-28T00:00:20;7.85;;;1.70;;
66972;SDS011;53902;51.466;-2.586;2023-02-28T00:02:47;13.48;;;2.33;;
66972;SDS011;53902;51.466;-2.586;2023-02-28T00:05:13;9.95;;;2.13;;
66972;SDS011;53902;51.466;-2.586;2023-02-28T00:07:41;6.35;;;1.80;;
66972;SDS011;53902;51.466;-2.586;2023-02-28T00:10:10;4.50;;;1.77;;
66972;SDS011;53902;51.466;-2.586;2023-02-28T00:12:37;6.47;;;1.98;;
66972;SDS011;53902;51.466;-2.586;2023-02-28T00:15:07;7.20;;;2.25;;
66972;SDS011;53902;51.466;-2.586;2023-02-28T00:17:34;8.57;;;2.38;;
66972;SDS011;53902;51.466;-2.586;2023-02-28T00:19:59;5.25;;;2.33;;
66972;SDS011;53902;51.466;-2.586;2023-02-28T00:22:46;6.97;;;2.50;;
66972;SDS011;53902;51.466;-2.586;2023-02-28T00:25:15;8.98;;;2.67;;
66972;SDS011;53902;51.466;-2.586;2023-02-28T00:27:43;6.95;;;2.75;;
66972;SDS011;53902;51.466;-2.586;2023-02-28T00:30:13;9.00;;;3.20;;
66972;SDS011;53902;51.466;-2.586;2023-02-28T00:32:40;8.27;;;3.22;;
66972;SDS011;53902;51.466;-2.586;2023-02-28T00:35:06;8.45;;;3.75;;
66972;SDS011;53902;51.466;-2.586;2023-02-28T00:37:33;12.37;;;4.33;;
66972;SDS011;53902;51.466;-2.586;2023-02-28T00:39:59;10.27;;;4.20;;
66972;SDS011;53902;51.466;-2.586;2023-02-28T00:42:24;8.50;;;3.85;;
66972;SDS011;53902;51.466;-2.586;2023-02-28T00:44:50;8.73;;;3.65;;
66972;SDS011;53902;51.466;-2.586;2023-02-28T00:47:16;9.90;;;3.80;;
66972;SDS011;53902;51.466;-2.586;2023-02-28T00:49:42;15.73;;;3.65;;
66972;SDS011;53902;51.466;-2.586;2023-02-28T00:52:08;10.45;;;4.05;;
66972;SDS011;53902;51.466;-2.586;2023-02-28T00:54:34;9.55;;;3.45;;
66972;SDS011;53902;51.466;-2.586;2023-02-28T00:57:00;8.60;;;3.38;;
66972;SDS011;53902;51.466;-2.586;2023-02-28T00:59:25;9.77;;;3.35;;
66972;SDS011;53902;51.466;-2.586;2023-02-28T01:01:52;10.80;;;3.13;;
66972;SDS011;53902;51.466;-2.586;2023-02-28T01:04:17;9.48;;;4.03;;
66972;SDS011;53902;51.466;-2.586;2023-02-28T01:06:43;10.13;;;3.00;;
66972;SDS011;53902;51.466;-2.586;2023-02-28T01:09:09;10.48;;;3.50;;
66972;SDS011;53902;51.466;-2.586;2023-02-28T01:11:36;7.32;;;3.33;;
66972;SDS011;53902;51.466;-2.586;2023-02-28T01:14:02;8.27;;;3.00;;
66972;SDS011;53902;51.466;-2.586;2023-02-28T01:16:32;7.22;;;2.75;;
66972;SDS011;53902;51.466;-2.586;2023-02-28T01:18:57;9.43;;;2.85;;
66972;SDS011;53902;51.466;-2.586;2023-02-28T01:21:23;6.57;;;2.65;;
66972;SDS011;53902;51.466;-2.586;2023-02-28T01:23:49;9.50;;;2.70;;
66972;SDS011;53902;51.466;-2.586;2023-02-28T01:26:17;6.57;;;2.45;;
66972;SDS011;53902;51.466;-2.586;2023-02-28T01:28:44;8.75;;;2.65;;
66972;SDS011;53902;51.466;-2.586;2023-02-28T01:31:10;8.60;;;2.90;;
66972;SDS011;53902;51.466;-2.586;2023-02-28T01:33:36;5.38;;;2.50;;
66972;SDS011;53902;51.466;-2.586;2023-02-28T01:36:03;7.05;;;2.28;;
66972;SDS011;53902;51.466;-2.586;2023-02-28T01:38:37;8.43;;;2.78;;
66972;SDS011;53902;51.466;-2.586;2023-02-28T01:41:03;4.47;;;2.40;;
66972;SDS011;53902;51.466;-2.586;2023-02-28T01:43:30;6.22;;;2.53;;
66972;SDS011;53902;51.466;-2.586;2023-02-28T01:45:57;4.47;;;2.88;;
66972;SDS011;53902;51.466;-2.586;2023-02-28T01:48:29;7.88;;;2.80;;
66972;SDS011;53902;51.466;-2.586;2023-02-28T01:50:58;4.47;;;2.40;;
66972;SDS011;53902;51.466;-2.586;2023-02-28T01:53:34;9.02;;;2.60;;
66972;SDS011;53902;51.466;-2.586;2023-02-28T01:56:04;8.05;;;2.33;;
66972;SDS011;53902;51.466;-2.586;2023-02-28T01:58:40;5.88;;;2.42;;
66972;SDS011;53902;51.466;-2.586;2023-02-28T02:01:06;7.50;;;2.72;;
66972;SDS011;53902;51.466;-2.586;2023-02-28T02:03:31;7.30;;;2.75;;
66972;SDS011;53902;51.466;-2.586;2023-02-28T02:05:57;9.88;;;2.72;;
66972;SDS011;53902;51.466;-2.586;2023-02-28T02:08:24;7.15;;;2.45;;
66972;SDS011;53902;51.466;-2.586;2023-02-28T02:10:52;7.05;;;3.25;;
66972;SDS011;53902;51.466;-2.586;2023-02-28T02:13:32;6.78;;;2.67;;
66972;SDS011;53902;51.466;-2.586;2023-02-28T02:18:48;7.57;;;2.70;;
66972;SDS011;53902;51.466;-2.586;2023-02-28T02:24:23;10.23;;;3.90;;
66972;SDS011;53902;51.466;-2.586;2023-02-28T02:27:06;8.88;;;3.90;;
66972;SDS011;53902;51.466;-2.586;2023-02-28T02:29:47;7.68;;;3.05;;
66972;SDS011;53902;51.466;-2.586;2023-02-28T02:38:08;7.82;;;2.80;;
66972;SDS011;53902;51.466;-2.586;2023-02-28T02:43:22;10.35;;;2.97;;
66972;SDS011;53902;51.466;-2.586;2023-02-28T02:45:57;5.90;;;2.70;;
66972;SDS011;53902;51.466;-2.586;2023-02-28T02:48:27;7.97;;;2.83;;
66972;SDS011;53902;51.466;-2.586;2023-02-28T02:50:56;8.57;;;3.15;;
66972;SDS011;53902;51.466;-2.586;2023-02-28T02:53:34;8.35;;;3.08;;
66972;SDS011;53902;51.466;-2.586;2023-02-28T02:56:03;5.10;;;2.72;;
66972;SDS011;53902;51.466;-2.586;2023-02-28T02:58:32;7.38;;;3.33;;
66972;SDS011;53902;51.466;-2.586;2023-02-28T03:01:07;5.80;;;2.63;;
66972;SDS011;53902;51.466;-2.586;2023-02-28T03:03:34;6.78;;;2.72;;
66972;SDS011;53902;51.466;-2.586;2023-02-28T03:06:00;7.53;;;2.90;;
66972;SDS011;53902;51.466;-2.586;2023-02-28T03:08:28;5.80;;;2.63;;
66972;SDS011;53902;51.466;-2.586;2023-02-28T03:10:56;8.40;;;2.97;;
66972;SDS011;53902;51.466;-2.586;2023-02-28T03:26:42;7.82;;;2.67;;
66972;SDS011;53902;51.466;-2.586;2023-02-28T03:29:14;4.40;;;2.55;;
66972;SDS011;53902;51.466;-2.586;2023-02-28T03:31:49;6.22;;;2.70;;
66972;SDS011;53902;51.466;-2.586;2023-02-28T03:34:37;9.52;;;2.30;;
66972;SDS011;53902;51.466;-2.586;2023-02-28T03:37:05;4.60;;;2.33;;
66972;SDS011;53902;51.466;-2.586;2023-02-28T03:39:38;7.55;;;2.42;;
66972;SDS011;53902;51.466;-2.586;2023-02-28T03:42:09;6.93;;;2.30;;
66972;SDS011;53902;51.466;-2.586;2023-02-28T03:44:42;8.23;;;2.60;;
66972;SDS011;53902;51.466;-2.586;2023-02-28T03:47:10;6.22;;;2.25;;
66972;SDS011;53902;51.466;-2.586;2023-02-28T03:49:46;4.70;;;2.40;;
66972;SDS011;53902;51.466;-2.586;2023-02-28T03:52:34;5.90;;;2.30;;
66972;SDS011;53902;51.466;-2.586;2023-02-28T03:55:01;4.22;;;2.22;;
66972;SDS011;53902;51.466;-2.586;2023-02-28T03:57:43;5.45;;;1.92;;
66972;SDS011;53902;51.466;-2.586;2023-02-28T04:00:39;3.40;;;1.92;;
66972;SDS011;53902;51.466;-2.586;2023-02-28T04:03:08;3.00;;;2.00;;
66972;SDS011;53902;51.466;-2.586;2023-02-28T04:05:43;7.20;;;2.53;;
66972;SDS011;53902;51.466;-2.586;2023-02-28T04:08:18;4.45;;;2.40;;
66972;SDS011;53902;51.466;-2.586;2023-02-28T04:10:43;2.67;;;2.10;;
66972;SDS011;53902;51.466;-2.586;2023-02-28T04:13:10;3.58;;;2.33;;
66972;SDS011;53902;51.466;-2.586;2023-02-28T04:15:36;5.22;;;2.42;;
66972;SDS011;53902;51.466;-2.586;2023-02-28T04:18:02;5.68;;;2.83;;
66972;SDS011;53902;51.466;-2.586;2023-02-28T04:20:27;3.33;;;2.25;;
66972;SDS011;53902;51.466;-2.586;2023-02-28T04:22:53;4.40;;;2.70;;
66972;SDS011;53902;51.466;-2.586;2023-02-28T04:25:19;4.95;;;2.40;;
66972;SDS011;53902;51.466;-2.586;2023-02-28T04:27:44;11.13;;;2.78;;
66972;SDS011;53902;51.466;-2.586;2023-02-28T04:30:10;7.32;;;2.80;;
66972;SDS011;53902;51.466;-2.586;2023-02-28T04:32:36;5.07;;;2.58;;
66972;SDS011;53902;51.466;-2.586;2023-02-28T04:35:02;6.70;;;3.13;;
66972;SDS011;53902;51.466;-2.586;2023-02-28T04:37:28;5.28;;;2.63;;
66972;SDS011;53902;51.466;-2.586;2023-02-28T04:39:54;4.38;;;2.55;;
66972;SDS011;53902;51.466;-2.586;2023-02-28T04:42:19;5.07;;;2.20;;
66972;SDS011;53902;51.466;-2.586;2023-02-28T04:44:45;6.35;;;3.13;;
66972;SDS011;53902;51.466;-2.586;2023-02-28T04:47:12;6.77;;;2.83;;
66972;SDS011;53902;51.466;-2.586;2023-02-28T04:49:37;4.63;;;2.53;;
66972;SDS011;53902;51.466;-2.586;2023-02-28T04:52:06;5.78;;;2.83;;
66972;SDS011;53902;51.466;-2.586;2023-02-28T04:54:32;5.30;;;2.58;;
66972;SDS011;53902;51.466;-2.586;2023-02-28T04:56:58;5.93;;;3.03;;
66972;SDS011;53902;51.466;-2.586;2023-02-28T04:59:23;8.23;;;3.15;;
66972;SDS011;53902;51.466;-2.586;2023-02-28T05:01:49;5.65;;;3.03;;
66972;SDS011;53902;51.466;-2.586;2023-02-28T05:04:15;11.75;;;3.65;;
66972;SDS011;53902;51.466;-2.586;2023-02-28T05:06:41;6.35;;;3.40;;
66972;SDS011;53902;51.466;-2.586;2023-02-28T05:09:06;8.00;;;3.22;;
66972;SDS011;53902;51.466;-2.586;2023-02-28T05:11:33;7.00;;;3.17;;
66972;SDS011;53902;51.466;-2.586;2023-02-28T05:14:03;5.65;;;3.42;;
66972;SDS011;53902;51.466;-2.586;2023-02-28T05:16:31;5.70;;;3.42;;
66972;SDS011;53902;51.466;-2.586;2023-02-28T05:18:57;7.57;;;3.90;;
66972;SDS011;53902;51.466;-2.586;2023-02-28T05:21:30;6.50;;;3.53;;
66972;SDS011;53902;51.466;-2.586;2023-02-28T05:23:58;6.32;;;3.55;;
66972;SDS011;53902;51.466;-2.586;2023-02-28T05:26:28;5.43;;;3.17;;
66972;SDS011;53902;51.466;-2.586;2023-02-28T05:28:54;8.87;;;3.33;;
66972;SDS011;53902;51.466;-2.586;2023-02-28T05:31:20;9.02;;;3.67;;
66972;SDS011;53902;51.466;-2.586;2023-02-28T05:33:46;5.00;;;3.47;;
66972;SDS011;53902;51.466;-2.586;2023-02-28T05:36:12;5.85;;;3.42;;
66972;SDS011;53902;51.466;-2.586;2023-02-28T05:38:38;6.57;;;3.72;;
66972;SDS011;53902;51.466;-2.586;2023-02-28T05:41:10;7.32;;;3.55;;
66972;SDS011;53902;51.466;-2.586;2023-02-28T05:43:36;7.18;;;4.10;;
66972;SDS011;53902;51.466;-2.586;2023-02-28T05:46:06;10.00;;;4.20;;
66972;SDS011;53902;51.466;-2.586;2023-02-28T05:48:34;6.00;;;3.63;;
66972;SDS011;53902;51.466;-2.586;2023-02-28T05:51:00;9.05;;;3.38;;
66972;SDS011;53902;51.466;-2.586;2023-02-28T05:53:26;8.18;;;3.40;;
66972;SDS011;53902;51.466;-2.586;2023-02-28T05:55:52;9.52;;;3.97;;
66972;SDS011;53902;51.466;-2.586;2023-02-28T05:58:18;5.00;;;3.78;;
66972;SDS011;53902;51.466;-2.586;2023-02-28T06:00:43;6.35;;;3.58;;
66972;SDS011;53902;51.466;-2.586;2023-02-28T06:03:09;9.65;;;4.50;;
66972;SDS011;53902;51.466;-2.586;2023-02-28T06:05:35;6.93;;;4.85;;
66972;SDS011;53902;51.466;-2.586;2023-02-28T06:08:01;9.77;;;4.32;;
66972;SDS011;53902;51.466;-2.586;2023-02-28T06:10:27;8.52;;;4.00;;
66972;SDS011;53902;51.466;-2.586;2023-02-28T06:12:54;5.88;;;4.00;;
66972;SDS011;53902;51.466;-2.586;2023-02-28T06:15:26;6.25;;;3.40;;
66972;SDS011;53902;51.466;-2.586;2023-02-28T06:17:52;9.57;;;3.63;;
66972;SDS011;53902;51.466;-2.586;2023-02-28T06:20:17;5.55;;;3.47;;
66972;SDS011;53902;51.466;-2.586;2023-02-28T06:22:43;7.47;;;3.47;;
66972;SDS011;53902;51.466;-2.586;2023-02-28T06:25:09;7.22;;;4.10;;
66972;SDS011;53902;51.466;-2.586;2023-02-28T06:27:41;9.85;;;4.50;;
66972;SDS011;53902;51.466;-2.586;2023-02-28T06:30:07;7.53;;;4.00;;
66972;SDS011;53902;51.466;-2.586;2023-02-28T06:32:33;9.13;;;4.50;;
66972;SDS011;53902;51.466;-2.586;2023-02-28T06:34:58;12.02;;;5.32;;
66972;SDS011;53902;51.466;-2.586;2023-02-28T06:37:24;7.43;;;4.65;;
66972;SDS011;53902;51.466;-2.586;2023-02-28T06:39:53;8.65;;;4.85;;
66972;SDS011;53902;51.466;-2.586;2023-02-28T06:42:21;11.70;;;5.70;;
66972;SDS011;53902;51.466;-2.586;2023-02-28T06:44:50;8.88;;;5.68;;
66972;SDS011;53902;51.466;-2.586;2023-02-28T06:47:16;10.13;;;5.85;;
66972;SDS011;53902;51.466;-2.586;2023-02-28T06:49:42;11.50;;;6.78;;
66972;SDS011;53902;51.466;-2.586;2023-02-28T06:52:07;9.88;;;6.50;;
66972;SDS011;53902;51.466;-2.586;2023-02-28T06:54:36;12.63;;;6.57;;
66972;SDS011;53902;51.466;-2.586;2023-02-28T06:57:02;10.38;;;6.18;;
66972;SDS011;53902;51.466;-2.586;2023-02-28T06:59:28;11.15;;;7.13;;
66972;SDS011;53902;51.466;-2.586;2023-02-28T07:01:54;12.18;;;7.07;;
66972;SDS011;53902;51.466;-2.586;2023-02-28T07:04:20;12.35;;;7.20;;
66972;SDS011;53902;51.466;-2.586;2023-02-28T07:06:46;13.30;;;7.85;;
66972;SDS011;53902;51.466;-2.586;2023-02-28T07:09:12;13.55;;;7.80;;
66972;SDS011;53902;51.466;-2.586;2023-02-28T07:11:39;13.00;;;8.00;;
66972;SDS011;53902;51.466;-2.586;2023-02-28T07:14:05;11.80;;;7.63;;
66972;SDS011;53902;51.466;-2.586;2023-02-28T07:16:32;12.50;;;7.82;;
66972;SDS011;53902;51.466;-2.586;2023-02-28T07:18:57;15.10;;;8.00;;
66972;SDS011;53902;51.466;-2.586;2023-02-28T07:21:23;13.30;;;7.70;;
66972;SDS011;53902;51.466;-2.586;2023-02-28T07:31:39;13.52;;;8.27;;
66972;SDS011;53902;51.466;-2.586;2023-02-28T07:48:05;14.10;;;8.23;;
66972;SDS011;53902;51.466;-2.586;2023-02-28T07:50:31;13.15;;;8.38;;
66972;SDS011;53902;51.466;-2.586;2023-02-28T07:52:57;14.43;;;8.52;;
66972;SDS011;53902;51.466;-2.586;2023-02-28T07:55:23;13.90;;;8.30;;
66972;SDS011;53902;51.466;-2.586;2023-02-28T07:57:49;12.52;;;8.20;;
66972;SDS011;53902;51.466;-2.586;2023-02-28T08:00:14;14.20;;;8.55;;
66972;SDS011;53902;51.466;-2.586;2023-02-28T08:02:41;14.23;;;7.57;;
66972;SDS011;53902;51.466;-2.586;2023-02-28T08:05:07;15.75;;;8.52;;
66972;SDS011;53902;51.466;-2.586;2023-02-28T08:07:33;13.88;;;8.02;;
66972;SDS011;53902;51.466;-2.586;2023-02-28T08:09:59;13.60;;;7.75;;
66972;SDS011;53902;51.466;-2.586;2023-02-28T08:12:25;13.23;;;7.97;;
66972;SDS011;53902;51.466;-2.586;2023-02-28T08:14:50;9.77;;;6.22;;
66972;SDS011;53902;51.466;-2.586;2023-02-28T08:17:16;12.65;;;6.47;;
66972;SDS011;53902;51.466;-2.586;2023-02-28T08:19:41;12.32;;;6.70;;
66972;SDS011;53902;51.466;-2.586;2023-02-28T08:22:07;10.75;;;6.18;;
66972;SDS011;53902;51.466;-2.586;2023-02-28T08:24:32;10.90;;;6.13;;
66972;SDS011;53902;51.466;-2.586;2023-02-28T08:26:58;11.13;;;7.32;;
66972;SDS011;53902;51.466;-2.586;2023-02-28T08:29:24;9.98;;;6.75;;
66972;SDS011;53902;51.466;-2.586;2023-02-28T08:31:49;14.20;;;7.20;;
66972;SDS011;53902;51.466;-2.586;2023-02-28T08:34:18;9.52;;;6.00;;
66972;SDS011;53902;51.466;-2.586;2023-02-28T08:36:43;10.15;;;6.07;;
66972;SDS011;53902;51.466;-2.586;2023-02-28T08:39:12;12.38;;;5.40;;
66972;SDS011;53902;51.466;-2.586;2023-02-28T08:41:37;12.40;;;5.75;;
66972;SDS011;53902;51.466;-2.586;2023-02-28T08:44:03;13.43;;;6.93;;
66972;SDS011;53902;51.466;-2.586;2023-02-28T08:46:29;10.60;;;6.78;;
66972;SDS011;53902;51.466;-2.586;2023-02-28T08:48:54;12.27;;;7.18;;
66972;SDS011;53902;51.466;-2.586;2023-02-28T08:51:21;13.18;;;6.93;;
66972;SDS011;53902;51.466;-2.586;2023-02-28T08:53:51;11.55;;;7.20;;
66972;SDS011;53902;51.466;-2.586;2023-02-28T08:56:17;11.00;;;6.75;;
66972;SDS011;53902;51.466;-2.586;2023-02-28T08:58:43;12.52;;;7.70;;
66972;SDS011;53902;51.466;-2.586;2023-02-28T09:01:14;14.40;;;7.88;;
66972;SDS011;53902;51.466;-2.586;2023-02-28T09:03:44;16.25;;;7.53;;
66972;SDS011;53902;51.466;-2.586;2023-02-28T09:06:11;15.40;;;8.32;;
66972;SDS011;53902;51.466;-2.586;2023-02-28T09:08:38;14.07;;;8.02;;
66972;SDS011;53902;51.466;-2.586;2023-02-28T09:11:03;13.77;;;7.93;;
66972;SDS011;53902;51.466;-2.586;2023-02-28T09:13:29;15.10;;;8.07;;
66972;SDS011;53902;51.466;-2.586;2023-02-28T09:15:57;13.25;;;7.47;;
66972;SDS011;53902;51.466;-2.586;2023-02-28T09:18:24;15.85;;;7.47;;
66972;SDS011;53902;51.466;-2.586;2023-02-28T09:20:50;15.77;;;8.93;;
66972;SDS011;53902;51.466;-2.586;2023-02-28T09:23:16;17.10;;;8.70;;
66972;SDS011;53902;51.466;-2.586;2023-02-28T09:25:45;15.27;;;8.50;;
66972;SDS011;53902;51.466;-2.586;2023-02-28T09:28:31;13.43;;;8.20;;
66972;SDS011;53902;51.466;-2.586;2023-02-28T09:30:57;19.40;;;8.00;;
66972;SDS011;53902;51.466;-2.586;2023-02-28T09:33:23;14.15;;;7.95;;
66972;SDS011;53902;51.466;-2.586;2023-02-28T09:35:50;13.82;;;8.10;;
66972;SDS011;53902;51.466;-2.586;2023-02-28T09:38:16;18.45;;;8.48;;
66972;SDS011;53902;51.466;-2.586;2023-02-28T09:40:49;22.73;;;8.20;;
66972;SDS011;53902;51.466;-2.586;2023-02-28T09:43:16;17.63;;;8.02;;
66972;SDS011;53902;51.466;-2.586;2023-02-28T09:45:45;15.73;;;7.97;;
66972;SDS011;53902;51.466;-2.586;2023-02-28T09:48:37;15.60;;;8.07;;
66972;SDS011;53902;51.466;-2.586;2023-02-28T09:54:14;14.38;;;8.45;;
66972;SDS011;53902;51.466;-2.586;2023-02-28T09:56:45;14.82;;;8.25;;
66972;SDS011;53902;51.466;-2.586;2023-02-28T10:02:24;12.35;;;7.15;;
66972;SDS011;53902;51.466;-2.586;2023-02-28T10:05:04;13.15;;;7.65;;
66972;SDS011;53902;51.466;-2.586;2023-02-28T10:12:57;10.90;;;7.03;;
66972;SDS011;53902;51.466;-2.586;2023-02-28T10:15:25;11.60;;;6.88;;
66972;SDS011;53902;51.466;-2.586;2023-02-28T10:17:54;13.43;;;6.70;;
66972;SDS011;53902;51.466;-2.586;2023-02-28T10:20:23;15.25;;;7.65;;
66972;SDS011;53902;51.466;-2.586;2023-02-28T10:25:45;17.60;;;9.43;;
66972;SDS011;53902;51.466;-2.586;2023-02-28T10:28:33;16.95;;;8.13;;
66972;SDS011;53902;51.466;-2.586;2023-02-28T10:30:58;20.92;;;8.43;;
66972;SDS011;53902;51.466;-2.586;2023-02-28T10:35:59;13.93;;;7.28;;
66972;SDS011;53902;51.466;-2.586;2023-02-28T10:38:44;14.57;;;7.60;;
66972;SDS011;53902;51.466;-2.586;2023-02-28T10:41:14;17.88;;;7.80;;
66972;SDS011;53902;51.466;-2.586;2023-02-28T10:43:44;20.65;;;8.90;;
66972;SDS011;53902;51.466;-2.586;2023-02-28T10:46:14;25.00;;;10.88;;
66972;SDS011;53902;51.466;-2.586;2023-02-28T10:49:06;31.48;;;10.70;;
66972;SDS011;53902;51.466;-2.586;2023-02-28T10:51:42;21.48;;;9.65;;
66972;SDS011;53902;51.466;-2.586;2023-02-28T10:54:15;16.13;;;8.38;;
66972;SDS011;53902;51.466;-2.586;2023-02-28T10:56:47;17.15;;;8.15;;
66972;SDS011;53902;51.466;-2.586;2023-02-28T10:59:43;18.27;;;7.28;;
66972;SDS011;53902;51.466;-2.586;2023-02-28T11:04:55;13.60;;;7.85;;
66972;SDS011;53902;51.466;-2.586;2023-02-28T11:07:25;15.65;;;7.32;;
66972;SDS011;53902;51.466;-2.586;2023-02-28T11:09:55;12.52;;;7.10;;
66972;SDS011;53902;51.466;-2.586;2023-02-28T11:15:04;14.43;;;7.30;;
66972;SDS011;53902;51.466;-2.586;2023-02-28T11:17:31;12.48;;;6.38;;
66972;SDS011;53902;51.466;-2.586;2023-02-28T11:20:02;14.23;;;6.40;;
66972;SDS011;53902;51.466;-2.586;2023-02-28T11:22:32;11.55;;;6.03;;
66972;SDS011;53902;51.466;-2.586;2023-02-28T11:25:06;11.40;;;6.47;;
66972;SDS011;53902;51.466;-2.586;2023-02-28T11:27:48;12.55;;;6.45;;
66972;SDS011;53902;51.466;-2.586;2023-02-28T11:33:01;19.02;;;7.35;;
66972;SDS011;53902;51.466;-2.586;2023-02-28T11:35:44;16.35;;;7.13;;
66972;SDS011;53902;51.466;-2.586;2023-02-28T11:38:13;14.52;;;7.13;;
66972;SDS011;53902;51.466;-2.586;2023-02-28T11:40:42;16.55;;;7.68;;
66972;SDS011;53902;51.466;-2.586;2023-02-28T11:43:52;15.43;;;7.47;;
66972;SDS011;53902;51.466;-2.586;2023-02-28T11:51:28;19.45;;;7.05;;
66972;SDS011;53902;51.466;-2.586;2023-02-28T11:54:12;12.32;;;6.82;;
66972;SDS011;53902;51.466;-2.586;2023-02-28T11:57:00;15.45;;;6.18;;
66972;SDS011;53902;51.466;-2.586;2023-02-28T11:59:48;10.95;;;5.32;;
66972;SDS011;53902;51.466;-2.586;2023-02-28T12:02:25;9.18;;;5.35;;
66972;SDS011;53902;51.466;-2.586;2023-02-28T12:04:58;9.75;;;5.00;;
66972;SDS011;53902;51.466;-2.586;2023-02-28T12:07:39;9.82;;;4.88;;
66972;SDS011;53902;51.466;-2.586;2023-02-28T12:10:29;10.82;;;5.72;;
66972;SDS011;53902;51.466;-2.586;2023-02-28T12:20:52;9.63;;;4.97;;
66972;SDS011;53902;51.466;-2.586;2023-02-28T12:26:07;7.45;;;4.38;;
66972;SDS011;53902;51.466;-2.586;2023-02-28T12:28:53;9.20;;;4.15;;
66972;SDS011;53902;51.466;-2.586;2023-02-28T12:31:25;6.85;;;4.20;;
66972;SDS011;53902;51.466;-2.586;2023-02-28T12:34:05;7.45;;;4.13;;
66972;SDS011;53902;51.466;-2.586;2023-02-28T12:36:34;5.97;;;3.72;;
66972;SDS011;53902;51.466;-2.586;2023-02-28T12:39:02;7.93;;;3.53;;
66972;SDS011;53902;51.466;-2.586;2023-02-28T12:41:45;5.18;;;2.83;;
66972;SDS011;53902;51.466;-2.586;2023-02-28T12:47:14;5.22;;;3.00;;
66972;SDS011;53902;51.466;-2.586;2023-02-28T12:50:02;6.18;;;3.53;;
66972;SDS011;53902;51.466;-2.586;2023-02-28T12:57:49;5.43;;;3.05;;
66972;SDS011;53902;51.466;-2.586;2023-02-28T13:00:23;4.97;;;3.28;;
66972;SDS011;53902;51.466;-2.586;2023-02-28T13:14:59;10.63;;;3.90;;
66972;SDS011;53902;51.466;-2.586;2023-02-28T13:19:46;8.30;;;3.60;;
66972;SDS011;53902;51.466;-2.586;2023-02-28T13:22:40;9.70;;;4.47;;
66972;SDS011;53902;51.466;-2.586;2023-02-28T13:27:46;7.80;;;4.07;;
66972;SDS011;53902;51.466;-2.586;2023-02-28T13:36:10;8.68;;;3.97;;
66972;SDS011;53902;51.466;-2.586;2023-02-28T13:38:49;6.80;;;4.13;;
66972;SDS011;53902;51.466;-2.586;2023-02-28T13:54:44;6.30;;;3.53;;
66972;SDS011;53902;51.466;-2.586;2023-02-28T14:06:09;5.13;;;3.20;;
66972;SDS011;53902;51.466;-2.586;2023-02-28T14:11:52;3.90;;;2.03;;
66972;SDS011;53902;51.466;-2.586;2023-02-28T14:17:05;4.78;;;2.35;;
66972;SDS011;53902;51.466;-2.586;2023-02-28T14:19:35;3.53;;;2.30;;
66972;SDS011;53902;51.466;-2.586;2023-02-28T14:33:00;3.63;;;2.58;;
66972;SDS011;53902;51.466;-2.586;2023-02-28T14:38:27;3.22;;;2.30;;
66972;SDS011;53902;51.466;-2.586;2023-02-28T14:40:55;5.25;;;2.60;;
66972;SDS011;53902;51.466;-2.586;2023-02-28T14:43:23;4.15;;;2.70;;
66972;SDS011;53902;51.466;-2.586;2023-02-28T14:45:51;3.95;;;2.60;;
66972;SDS011;53902;51.466;-2.586;2023-02-28T14:48:19;3.92;;;2.88;;
66972;SDS011;53902;51.466;-2.586;2023-02-28T14:50:49;3.75;;;3.20;;
66972;SDS011;53902;51.466;-2.586;2023-02-28T14:53:18;5.03;;;2.80;;
66972;SDS011;53902;51.466;-2.586;2023-02-28T14:55:45;3.85;;;2.40;;
66972;SDS011;53902;51.466;-2.586;2023-02-28T15:00:49;3.78;;;2.30;;
66972;SDS011;53902;51.466;-2.586;2023-02-28T15:03:37;4.07;;;2.40;;
66972;SDS011;53902;51.466;-2.586;2023-02-28T15:06:05;88.85;;;5.35;;
66972;SDS011;53902;51.466;-2.586;2023-02-28T15:08:42;3.25;;;2.63;;
66972;SDS011;53902;51.466;-2.586;2023-02-28T15:11:08;2.65;;;2.03;;
66972;SDS011;53902;51.466;-2.586;2023-02-28T15:13:48;3.85;;;2.30;;
66972;SDS011;53902;51.466;-2.586;2023-02-28T15:16:22;279.63;;;13.70;;
66972;SDS011;53902;51.466;-2.586;2023-02-28T15:21:26;4.28;;;2.80;;
66972;SDS011;53902;51.466;-2.586;2023-02-28T15:26:31;7.82;;;4.03;;
66972;SDS011;53902;51.466;-2.586;2023-02-28T15:29:05;2.53;;;2.10;;
66972;SDS011;53902;51.466;-2.586;2023-02-28T15:31:34;3.60;;;2.42;;
66972;SDS011;53902;51.466;-2.586;2023-02-28T15:34:04;2.47;;;2.05;;
66972;SDS011;53902;51.466;-2.586;2023-02-28T15:36:32;2.88;;;2.22;;
66972;SDS011;53902;51.466;-2.586;2023-02-28T15:39:02;6.22;;;3.15;;
66972;SDS011;53902;51.466;-2.586;2023-02-28T15:41:36;4.70;;;2.58;;
66972;SDS011;53902;51.466;-2.586;2023-02-28T15:47:01;4.93;;;3.00;;
66972;SDS011;53902;51.466;-2.586;2023-02-28T15:49:29;7.05;;;3.38;;
66972;SDS011;53902;51.466;-2.586;2023-02-28T15:52:01;5.35;;;3.00;;
66972;SDS011;53902;51.466;-2.586;2023-02-28T15:54:28;4.03;;;2.88;;
66972;SDS011;53902;51.466;-2.586;2023-02-28T15:56:56;20.55;;;4.07;;
66972;SDS011;53902;51.466;-2.586;2023-02-28T15:59:26;3.85;;;2.50;;
66972;SDS011;53902;51.466;-2.586;2023-02-28T16:04:34;4.53;;;2.47;;
66972;SDS011;53902;51.466;-2.586;2023-02-28T16:07:01;3.08;;;2.10;;
66972;SDS011;53902;51.466;-2.586;2023-02-28T16:09:28;69.43;;;4.72;;
66972;SDS011;53902;51.466;-2.586;2023-02-28T16:11:55;2.47;;;1.85;;
66972;SDS011;53902;51.466;-2.586;2023-02-28T16:14:25;5.63;;;2.00;;
66972;SDS011;53902;51.466;-2.586;2023-02-28T16:17:05;5.45;;;2.45;;
66972;SDS011;53902;51.466;-2.586;2023-02-28T16:19:35;2.58;;;1.98;;
66972;SDS011;53902;51.466;-2.586;2023-02-28T16:22:00;2.72;;;1.95;;
66972;SDS011;53902;51.466;-2.586;2023-02-28T16:24:26;5.07;;;2.35;;
66972;SDS011;53902;51.466;-2.586;2023-02-28T16:26:52;2.50;;;1.80;;
66972;SDS011;53902;51.466;-2.586;2023-02-28T16:29:22;3.60;;;2.58;;
66972;SDS011;53902;51.466;-2.586;2023-02-28T16:31:50;2.38;;;1.75;;
66972;SDS011;53902;51.466;-2.586;2023-02-28T16:34:16;3.28;;;2.38;;
66972;SDS011;53902;51.466;-2.586;2023-02-28T16:36:46;4.63;;;2.70;;
66972;SDS011;53902;51.466;-2.586;2023-02-28T16:39:12;4.28;;;2.40;;
66972;SDS011;53902;51.466;-2.586;2023-02-28T16:41:38;5.85;;;2.60;;
66972;SDS011;53902;51.466;-2.586;2023-02-28T16:44:09;4.78;;;2.40;;
66972;SDS011;53902;51.466;-2.586;2023-02-28T16:46:37;3.72;;;2.28;;
66972;SDS011;53902;51.466;-2.586;2023-02-28T16:49:02;5.15;;;2.10;;
66972;SDS011;53902;51.466;-2.586;2023-02-28T16:51:27;4.70;;;2.75;;
66972;SDS011;53902;51.466;-2.586;2023-02-28T16:53:53;4.57;;;2.80;;
66972;SDS011;53902;51.466;-2.586;2023-02-28T16:56:23;6.35;;;2.60;;
66972;SDS011;53902;51.466;-2.586;2023-02-28T16:58:49;3.58;;;2.42;;
66972;SDS011;53902;51.466;-2.586;2023-02-28T17:01:15;2.08;;;1.60;;
66972;SDS011;53902;51.466;-2.586;2023-02-28T17:03:41;3.45;;;2.30;;
66972;SDS011;53902;51.466;-2.586;2023-02-28T17:09:02;6.00;;;2.45;;
66972;SDS011;53902;51.466;-2.586;2023-02-28T17:11:27;4.65;;;2.03;;
66972;SDS011;53902;51.466;-2.586;2023-02-28T17:13:53;2.53;;;1.95;;
66972;SDS011;53902;51.466;-2.586;2023-02-28T17:16:35;4.75;;;2.35;;
66972;SDS011;53902;51.466;-2.586;2023-02-28T17:19:03;4.18;;;1.90;;
66972;SDS011;53902;51.466;-2.586;2023-02-28T17:21:30;5.35;;;1.85;;
66972;SDS011;53902;51.466;-2.586;2023-02-28T17:23:57;4.50;;;2.30;;
66972;SDS011;53902;51.466;-2.586;2023-02-28T17:26:23;6.07;;;3.97;;
66972;SDS011;53902;51.466;-2.586;2023-02-28T17:28:53;2.50;;;1.70;;
66972;SDS011;53902;51.466;-2.586;2023-02-28T17:31:21;7.47;;;4.40;;
66972;SDS011;53902;51.466;-2.586;2023-02-28T17:33:47;2.60;;;2.13;;
66972;SDS011;53902;51.466;-2.586;2023-02-28T17:36:16;3.47;;;1.98;;
66972;SDS011;53902;51.466;-2.586;2023-02-28T17:38:46;3.72;;;2.42;;
66972;SDS011;53902;51.466;-2.586;2023-02-28T17:41:12;4.32;;;2.10;;
66972;SDS011;53902;51.466;-2.586;2023-02-28T17:43:38;4.55;;;2.45;;